Time;durP1;ratioP1;P1;durP2;ratioP2;P2;SDS_P1;SDS_P2;PMS_P1;PMS_P2;Temp;Humidity;BMP_temperature;BMP_pressure;BME280_temperature;BME280_humidity;BME280_pressure;Samples;Min_cycle;Max_cycle;Signal;HPM_P1;HPM_P2
2023/12/30 00:01:15;;;;;;;12.85;1.73;;;;;;;;;;5059695;28;20479;-78
2023/12/30 00:03:41;;;;;;;9.85;2.05;;;;;;;;;;5072381;28;20056;-78
2023/12/30 00:06:08;;;;;;;10.25;1.40;;;;;;;;;;5064765;28;20013;-78
2023/12/30 00:08:34;;;;;;;10.52;1.73;;;;;;;;;;5050839;28;20024;-78
2023/12/30 00:11:00;;;;;;;13.40;1.75;;;;;;;;;;5056498;28;20024;-78
2023/12/30 00:13:26;;;;;;;11.60;2.08;;;;;;;;;;5070675;28;20038;-78
2023/12/30 00:15:52;;;;;;;11.27;1.40;;;;;;;;;;5067808;28;20078;-78
2023/12/30 00:18:18;;;;;;;12.18;1.27;;;;;;;;;;5050389;28;20017;-78
2023/12/30 00:20:45;;;;;;;8.30;1.55;;;;;;;;;;5051939;28;20095;-78
2023/12/30 00:23:11;;;;;;;9.77;1.60;;;;;;;;;;5070477;28;20016;-78
2023/12/30 00:25:37;;;;;;;13.68;1.45;;;;;;;;;;5070229;28;20021;-78
2023/12/30 00:28:03;;;;;;;9.52;1.67;;;;;;;;;;5050437;28;20024;-78
2023/12/30 00:30:29;;;;;;;10.68;1.60;;;;;;;;;;5051837;28;20096;-80
2023/12/30 00:32:55;;;;;;;11.63;1.60;;;;;;;;;;5069386;28;20031;-78
2023/12/30 00:35:22;;;;;;;6.97;1.70;;;;;;;;;;5071493;28;20033;-78
2023/12/30 00:37:48;;;;;;;12.10;1.33;;;;;;;;;;5051847;28;20398;-78
2023/12/30 00:40:14;;;;;;;12.45;1.42;;;;;;;;;;5050253;28;20036;-78
2023/12/30 00:42:40;;;;;;;15.10;2.28;;;;;;;;;;5057771;28;20114;-78
2023/12/30 00:45:07;;;;;;;13.43;1.45;;;;;;;;;;5051443;28;20013;-78
2023/12/30 00:47:32;;;;;;;10.65;1.33;;;;;;;;;;5066237;28;20104;-78
2023/12/30 00:49:58;;;;;;;11.95;1.58;;;;;;;;;;5070017;28;20115;-78
2023/12/30 00:52:24;;;;;;;11.25;1.63;;;;;;;;;;5057944;28;20021;-78
2023/12/30 00:54:51;;;;;;;15.27;1.65;;;;;;;;;;5050227;28;20025;-78
2023/12/30 00:57:17;;;;;;;13.60;1.67;;;;;;;;;;5061414;28;20119;-77
2023/12/30 00:59:43;;;;;;;15.70;1.85;;;;;;;;;;5069842;28;20020;-77
2023/12/30 01:02:09;;;;;;;10.57;1.42;;;;;;;;;;5060506;28;20428;-78
2023/12/30 01:04:35;;;;;;;10.02;1.42;;;;;;;;;;5049650;28;20071;-78
2023/12/30 01:07:01;;;;;;;12.10;1.77;;;;;;;;;;5055242;28;20012;-78
2023/12/30 01:09:27;;;;;;;7.97;1.30;;;;;;;;;;5069385;28;20108;-78
2023/12/30 01:11:53;;;;;;;9.70;1.10;;;;;;;;;;5069747;28;20017;-78
2023/12/30 01:14:19;;;;;;;6.85;1.30;;;;;;;;;;5050724;28;20096;-78
2023/12/30 01:16:45;;;;;;;13.07;1.50;;;;;;;;;;5049175;28;20124;-78
2023/12/30 01:19:11;;;;;;;11.90;1.88;;;;;;;;;;5068718;28;20021;-78
2023/12/30 01:21:37;;;;;;;12.10;1.77;;;;;;;;;;5069208;28;20116;-78
2023/12/30 01:24:03;;;;;;;9.25;1.50;;;;;;;;;;5050981;28;20104;-78
2023/12/30 01:26:29;;;;;;;15.45;1.73;;;;;;;;;;5050270;28;20024;-78
2023/12/30 01:28:55;;;;;;;6.82;1.40;;;;;;;;;;5066791;28;20036;-78
2023/12/30 01:31:21;;;;;;;9.82;1.80;;;;;;;;;;5068879;28;20025;-77
2023/12/30 01:33:47;;;;;;;10.05;1.58;;;;;;;;;;5055747;28;20028;-77
2023/12/30 01:36:13;;;;;;;12.25;1.75;;;;;;;;;;5050441;28;20095;-78
2023/12/30 01:38:41;;;;;;;12.90;1.95;;;;;;;;;;5061859;28;20104;-78
2023/12/30 01:41:07;;;;;;;16.38;1.85;;;;;;;;;;5070180;28;20009;-78
2023/12/30 01:43:33;;;;;;;7.80;1.02;;;;;;;;;;5058917;28;20017;-78
2023/12/30 01:46:04;;;;;;;10.18;1.50;;;;;;;;;;5048919;28;20025;-77
2023/12/30 01:48:31;;;;;;;10.82;1.58;;;;;;;;;;5057419;28;20178;-78
2023/12/30 01:50:58;;;;;;;10.95;1.65;;;;;;;;;;5069788;28;20095;-78
2023/12/30 01:53:25;;;;;;;8.15;1.63;;;;;;;;;;5060887;28;20024;-78
2023/12/30 01:55:51;;;;;;;11.02;1.48;;;;;;;;;;5048517;28;20040;-77
2023/12/30 01:58:19;;;;;;;9.73;1.27;;;;;;;;;;5054507;28;20488;-78
2023/12/30 02:00:46;;;;;;;10.38;1.50;;;;;;;;;;5068626;28;20012;-78
2023/12/30 02:03:12;;;;;;;8.70;1.63;;;;;;;;;;5063539;28;20013;-78
2023/12/30 02:05:39;;;;;;;9.18;1.80;;;;;;;;;;5049712;28;20013;-78
2023/12/30 02:08:05;;;;;;;12.40;1.38;;;;;;;;;;5052961;28;20042;-78
2023/12/30 02:10:31;;;;;;;12.48;1.85;;;;;;;;;;5068282;28;20055;-78
2023/12/30 02:12:57;;;;;;;8.55;1.42;;;;;;;;;;5067891;28;20074;-78
2023/12/30 02:15:24;;;;;;;14.38;1.70;;;;;;;;;;5049937;28;20465;-78
2023/12/30 02:17:54;;;;;;;12.35;1.40;;;;;;;;;;5050137;28;20013;-78
2023/12/30 02:20:21;;;;;;;13.18;1.60;;;;;;;;;;5068139;28;20020;-78
2023/12/30 02:22:47;;;;;;;16.58;1.83;;;;;;;;;;5067993;28;20017;-78
2023/12/30 02:25:13;;;;;;;18.45;2.63;;;;;;;;;;5049560;28;20152;-77
2023/12/30 02:27:40;;;;;;;16.20;1.95;;;;;;;;;;5048160;28;20389;-78
2023/12/30 02:30:06;;;;;;;8.85;1.23;;;;;;;;;;5066669;28;20020;-78
2023/12/30 02:32:32;;;;;;;9.48;2.10;;;;;;;;;;5068020;28;20024;-78
2023/12/30 02:34:58;;;;;;;6.20;1.58;;;;;;;;;;5050632;28;20397;-78
2023/12/30 02:37:24;;;;;;;9.68;1.90;;;;;;;;;;5047989;28;20044;-78
2023/12/30 02:39:50;;;;;;;10.52;1.60;;;;;;;;;;5064919;28;20024;-78
2023/12/30 02:42:16;;;;;;;11.38;1.50;;;;;;;;;;5067817;28;20070;-78
2023/12/30 02:44:42;;;;;;;13.90;1.63;;;;;;;;;;5053378;28;20025;-78
2023/12/30 02:47:08;;;;;;;12.18;1.92;;;;;;;;;;5049425;28;20233;-77
2023/12/30 02:49:34;;;;;;;13.27;1.77;;;;;;;;;;5060228;28;20032;-78
2023/12/30 02:52:01;;;;;;;12.85;1.95;;;;;;;;;;5067878;28;20017;-78
2023/12/30 02:54:27;;;;;;;6.88;1.48;;;;;;;;;;5056551;28;20524;-78
2023/12/30 02:56:53;;;;;;;13.20;2.05;;;;;;;;;;5047859;28;20027;-78
2023/12/30 02:59:19;;;;;;;9.25;1.77;;;;;;;;;;5057966;28;20020;-78
2023/12/30 03:01:45;;;;;;;7.22;1.25;;;;;;;;;;5069012;28;20066;-78
2023/12/30 03:04:11;;;;;;;10.20;1.80;;;;;;;;;;5059540;28;20021;-78
2023/12/30 03:06:37;;;;;;;9.30;1.60;;;;;;;;;;5047553;28;20385;-78
2023/12/30 03:09:04;;;;;;;13.23;2.13;;;;;;;;;;5053785;28;20108;-78
2023/12/30 03:11:30;;;;;;;12.45;2.35;;;;;;;;;;5068863;28;20456;-80
2023/12/30 03:13:56;;;;;;;13.73;2.05;;;;;;;;;;5062533;28;20021;-78
2023/12/30 03:16:22;;;;;;;12.77;1.92;;;;;;;;;;5047364;28;20086;-78
2023/12/30 03:18:48;;;;;;;14.60;1.90;;;;;;;;;;5050825;28;20388;-78
2023/12/30 03:21:14;;;;;;;15.23;1.60;;;;;;;;;;5068956;28;20009;-78
2023/12/30 03:23:41;;;;;;;12.57;2.17;;;;;;;;;;5066553;28;20013;-78
2023/12/30 03:26:08;;;;;;;11.63;2.28;;;;;;;;;;5047304;28;20009;-77
2023/12/30 03:28:34;;;;;;;17.17;2.05;;;;;;;;;;5048115;28;20457;-78
2023/12/30 03:31:00;;;;;;;15.00;1.88;;;;;;;;;;5067181;28;20028;-78
2023/12/30 03:33:26;;;;;;;17.80;2.03;;;;;;;;;;5067431;28;20017;-78
2023/12/30 03:35:53;;;;;;;9.35;1.65;;;;;;;;;;5047269;28;20070;-78
2023/12/30 03:38:19;;;;;;;8.25;1.65;;;;;;;;;;5047284;28;20958;-78
2023/12/30 03:40:45;;;;;;;15.95;2.17;;;;;;;;;;5067128;28;20049;-78
2023/12/30 03:43:11;;;;;;;13.77;2.03;;;;;;;;;;5067346;28;20113;-78
2023/12/30 03:45:37;;;;;;;12.60;1.80;;;;;;;;;;5051364;28;20021;-78
2023/12/30 03:48:03;;;;;;;9.82;1.50;;;;;;;;;;5047303;28;20051;-78
2023/12/30 03:50:29;;;;;;;12.15;1.58;;;;;;;;;;5062466;28;20033;-77
2023/12/30 03:52:55;;;;;;;12.13;2.00;;;;;;;;;;5067115;28;20532;-78
2023/12/30 03:55:21;;;;;;;14.43;1.40;;;;;;;;;;5052935;28;20029;-78
2023/12/30 03:57:47;;;;;;;13.38;2.00;;;;;;;;;;5047071;28;20040;-78
2023/12/30 04:00:13;;;;;;;16.98;1.80;;;;;;;;;;5059916;28;20020;-78
2023/12/30 04:02:40;;;;;;;13.68;1.98;;;;;;;;;;5068627;28;20091;-77
2023/12/30 04:05:06;;;;;;;18.00;2.20;;;;;;;;;;5057662;28;20024;-78
2023/12/30 04:07:32;;;;;;;8.13;1.73;;;;;;;;;;5047010;28;20032;-78
2023/12/30 04:09:58;;;;;;;9.95;1.75;;;;;;;;;;5056027;28;20020;-77
2023/12/30 04:12:24;;;;;;;17.63;2.08;;;;;;;;;;5068546;28;20021;-78
2023/12/30 04:14:51;;;;;;;15.93;2.33;;;;;;;;;;5064196;28;20025;-78
2023/12/30 04:17:17;;;;;;;14.95;2.15;;;;;;;;;;5050407;28;20043;-77
2023/12/30 04:19:42;;;;;;;15.90;2.05;;;;;;;;;;5055506;28;20012;-78
2023/12/30 04:22:08;;;;;;;18.35;2.00;;;;;;;;;;5070432;28;20020;-78
2023/12/30 04:24:34;;;;;;;9.95;1.80;;;;;;;;;;5068635;28;20428;-78
2023/12/30 04:27:00;;;;;;;10.95;1.92;;;;;;;;;;5051529;28;20024;-78
2023/12/30 04:29:28;;;;;;;14.80;2.10;;;;;;;;;;5053530;28;20253;-78
2023/12/30 04:31:54;;;;;;;13.85;2.40;;;;;;;;;;5071456;28;20092;-78
2023/12/30 04:34:21;;;;;;;16.35;2.20;;;;;;;;;;5069345;28;20059;-78
2023/12/30 04:36:46;;;;;;;9.65;1.60;;;;;;;;;;5050070;28;20383;-78
2023/12/30 04:39:12;;;;;;;12.73;2.33;;;;;;;;;;5051267;28;20017;-77
2023/12/30 04:41:39;;;;;;;11.57;1.63;;;;;;;;;;5069175;28;20376;-78
2023/12/30 04:44:05;;;;;;;9.52;2.00;;;;;;;;;;5069887;28;20078;-78
2023/12/30 04:46:31;;;;;;;9.20;1.75;;;;;;;;;;5052116;28;20021;-78
2023/12/30 04:49:01;;;;;;;11.50;2.03;;;;;;;;;;5050021;28;20032;-78
2023/12/30 04:51:27;;;;;;;13.70;1.50;;;;;;;;;;5066375;28;20415;-78
2023/12/30 04:53:53;;;;;;;11.48;1.63;;;;;;;;;;5071032;28;20028;-77
2023/12/30 04:56:19;;;;;;;12.15;2.03;;;;;;;;;;5054650;28;20067;-78
2023/12/30 04:58:45;;;;;;;14.90;1.70;;;;;;;;;;5049818;28;20079;-78
2023/12/30 05:01:12;;;;;;;10.85;1.40;;;;;;;;;;5063308;28;20431;-78
2023/12/30 05:03:38;;;;;;;13.75;2.05;;;;;;;;;;5071158;28;20016;-78
2023/12/30 05:06:04;;;;;;;11.15;2.35;;;;;;;;;;5058507;28;20017;-78
2023/12/30 05:08:30;;;;;;;14.45;1.48;;;;;;;;;;5050851;28;20100;-78
2023/12/30 05:10:56;;;;;;;10.65;1.63;;;;;;;;;;5060483;28;20449;-78
2023/12/30 05:13:22;;;;;;;20.98;2.80;;;;;;;;;;5071153;28;20028;-78
2023/12/30 05:15:49;;;;;;;7.60;1.67;;;;;;;;;;5059738;28;20100;-78
2023/12/30 05:18:15;;;;;;;14.93;1.77;;;;;;;;;;5049235;28;20021;-77
2023/12/30 05:20:42;;;;;;;9.85;1.83;;;;;;;;;;5050751;28;20013;-78
2023/12/30 05:23:08;;;;;;;14.30;1.45;;;;;;;;;;5048803;28;20311;-78
2023/12/30 05:25:34;;;;;;;10.48;1.60;;;;;;;;;;5055926;28;20096;-78
2023/12/30 05:28:00;;;;;;;9.02;1.95;;;;;;;;;;5069125;28;20028;-78
2023/12/30 05:30:28;;;;;;;10.95;1.73;;;;;;;;;;5063684;28;20049;-78
2023/12/30 05:32:54;;;;;;;13.02;1.92;;;;;;;;;;5050913;28;20027;-78
2023/12/30 05:35:20;;;;;;;12.43;1.75;;;;;;;;;;5053113;28;20411;-77
2023/12/30 05:37:47;;;;;;;9.45;1.58;;;;;;;;;;5068906;28;20142;-78
2023/12/30 05:40:13;;;;;;;10.30;1.88;;;;;;;;;;5067511;28;20389;-78
2023/12/30 05:42:39;;;;;;;15.82;1.75;;;;;;;;;;5048779;28;20009;-78
2023/12/30 05:45:05;;;;;;;10.80;1.80;;;;;;;;;;5050359;28;20104;-77
2023/12/30 05:47:31;;;;;;;6.38;1.40;;;;;;;;;;5068830;28;20047;-78
2023/12/30 05:49:57;;;;;;;12.45;1.83;;;;;;;;;;5068035;28;20016;-78
2023/12/30 05:52:23;;;;;;;13.88;2.03;;;;;;;;;;5048976;28;20024;-78
2023/12/30 05:54:49;;;;;;;12.95;2.15;;;;;;;;;;5048592;28;20023;-78
2023/12/30 05:57:15;;;;;;;13.68;1.85;;;;;;;;;;5067821;28;20370;-78
2023/12/30 05:59:42;;;;;;;10.15;1.58;;;;;;;;;;5069773;28;20009;-78
2023/12/30 06:02:08;;;;;;;12.80;1.90;;;;;;;;;;5050288;28;20491;-78
2023/12/30 06:04:33;;;;;;;12.48;2.55;;;;;;;;;;5048465;28;20104;-78
2023/12/30 06:06:59;;;;;;;10.55;2.00;;;;;;;;;;5065190;28;20143;-78
2023/12/30 06:09:26;;;;;;;12.68;1.65;;;;;;;;;;5068277;28;20012;-79
2023/12/30 06:11:52;;;;;;;9.80;2.38;;;;;;;;;;5052684;28;20120;-78
2023/12/30 06:14:18;;;;;;;8.85;1.83;;;;;;;;;;5049762;28;20091;-78
2023/12/30 06:16:44;;;;;;;11.30;2.20;;;;;;;;;;5063598;28;20731;-78
2023/12/30 06:19:10;;;;;;;11.48;2.03;;;;;;;;;;5068183;28;20016;-78
2023/12/30 06:21:36;;;;;;;8.32;1.50;;;;;;;;;;5055375;28;20024;-78
2023/12/30 06:24:02;;;;;;;10.32;2.20;;;;;;;;;;5048028;28;20112;-78
2023/12/30 06:26:28;;;;;;;11.15;1.92;;;;;;;;;;5059253;28;20099;-78
2023/12/30 06:28:54;;;;;;;10.82;1.58;;;;;;;;;;5069487;28;20380;-78
2023/12/30 06:31:20;;;;;;;8.95;1.40;;;;;;;;;;5059729;28;20021;-78
2023/12/30 06:33:46;;;;;;;11.70;2.00;;;;;;;;;;5048901;28;20013;-78
2023/12/30 06:36:20;;;;;;;12.10;1.77;;;;;;;;;;5055497;28;20473;-78
2023/12/30 06:38:46;;;;;;;12.98;2.00;;;;;;;;;;5068096;28;20480;-78
2023/12/30 06:41:12;;;;;;;14.95;2.65;;;;;;;;;;5061207;28;20017;-78
2023/12/30 06:43:38;;;;;;;7.68;1.50;;;;;;;;;;5048014;28;20020;-79
2023/12/30 06:46:04;;;;;;;8.80;1.48;;;;;;;;;;5054549;28;20017;-79
2023/12/30 06:48:30;;;;;;;11.85;2.53;;;;;;;;;;5067809;28;20017;-78
2023/12/30 06:50:57;;;;;;;7.40;1.50;;;;;;;;;;5062767;28;20036;-78
2023/12/30 06:53:23;;;;;;;13.95;1.67;;;;;;;;;;5048789;28;20017;-81
2023/12/30 06:55:49;;;;;;;11.77;1.73;;;;;;;;;;5050191;28;20318;-77
2023/12/30 06:58:15;;;;;;;12.82;2.25;;;;;;;;;;5047151;28;20071;-77
2023/12/30 07:00:41;;;;;;;10.00;1.55;;;;;;;;;;5055393;28;20462;-77
2023/12/30 07:03:07;;;;;;;9.05;1.52;;;;;;;;;;5049111;28;20021;-77
2023/12/30 07:05:35;;;;;;;10.27;2.25;;;;;;;;;;5049081;28;20096;-77
2023/12/30 07:08:02;;;;;;;12.60;1.92;;;;;;;;;;5044732;28;20469;-77
2023/12/30 07:10:28;;;;;;;11.73;1.70;;;;;;;;;;5046033;28;20028;-77
2023/12/30 07:12:54;;;;;;;9.50;1.42;;;;;;;;;;5048704;28;20025;-77
2023/12/30 07:15:20;;;;;;;11.15;1.73;;;;;;;;;;5048076;28;20013;-77
2023/12/30 07:17:48;;;;;;;11.73;1.83;;;;;;;;;;5048431;28;20040;-77
2023/12/30 07:20:14;;;;;;;11.90;1.85;;;;;;;;;;5047043;28;20558;-79
2023/12/30 07:22:40;;;;;;;16.15;1.95;;;;;;;;;;5065798;28;20308;-77
2023/12/30 07:25:06;;;;;;;9.27;1.85;;;;;;;;;;5067682;28;20013;-77
2023/12/30 07:27:32;;;;;;;12.65;1.63;;;;;;;;;;5053009;28;20039;-77
2023/12/30 07:29:58;;;;;;;16.80;1.40;;;;;;;;;;5047574;28;20489;-77
2023/12/30 07:32:24;;;;;;;11.55;1.60;;;;;;;;;;5062817;28;20029;-77
2023/12/30 07:34:50;;;;;;;13.30;1.67;;;;;;;;;;5068613;28;20105;-82
2023/12/30 07:37:16;;;;;;;16.30;2.20;;;;;;;;;;5054908;28;20033;-77
2023/12/30 07:39:42;;;;;;;9.13;1.75;;;;;;;;;;5048710;28;20013;-79
2023/12/30 07:42:08;;;;;;;10.48;1.65;;;;;;;;;;5057490;28;20024;-77
2023/12/30 07:44:37;;;;;;;17.50;1.50;;;;;;;;;;5068465;28;20013;-77
2023/12/30 07:47:04;;;;;;;10.13;2.15;;;;;;;;;;5061874;28;20028;-76
2023/12/30 07:49:30;;;;;;;16.80;1.52;;;;;;;;;;5052382;28;20109;-77
2023/12/30 07:51:56;;;;;;;11.98;1.83;;;;;;;;;;5057696;28;20107;-78
2023/12/30 07:54:22;;;;;;;12.70;1.80;;;;;;;;;;5071329;28;20016;-78
2023/12/30 07:56:48;;;;;;;11.70;1.55;;;;;;;;;;5067427;28;20040;-79
2023/12/30 07:59:14;;;;;;;13.48;1.98;;;;;;;;;;5050978;28;20036;-80
2023/12/30 08:01:42;;;;;;;11.93;1.77;;;;;;;;;;5053902;28;20036;-77
2023/12/30 08:04:08;;;;;;;12.32;1.75;;;;;;;;;;5070856;28;20077;-77
2023/12/30 08:06:34;;;;;;;12.85;1.77;;;;;;;;;;5071792;28;20309;-77
2023/12/30 08:09:00;;;;;;;9.15;1.70;;;;;;;;;;5050773;28;20017;-77
2023/12/30 08:11:26;;;;;;;12.63;1.77;;;;;;;;;;5050758;28;20016;-77
2023/12/30 08:13:52;;;;;;;10.95;1.77;;;;;;;;;;5059856;28;20385;-79
2023/12/30 08:16:18;;;;;;;15.48;2.00;;;;;;;;;;5051659;28;20143;-76
2023/12/30 08:18:44;;;;;;;12.93;2.00;;;;;;;;;;5069974;28;20111;-76
2023/12/30 08:21:10;;;;;;;9.07;1.63;;;;;;;;;;5056959;28;20039;-76
2023/12/30 08:23:36;;;;;;;6.95;1.27;;;;;;;;;;5049942;28;20020;-76
2023/12/30 08:26:02;;;;;;;16.45;2.03;;;;;;;;;;5051207;28;20013;-76
2023/12/30 08:28:28;;;;;;;14.38;2.42;;;;;;;;;;5050297;28;20024;-76
2023/12/30 08:30:56;;;;;;;10.30;1.65;;;;;;;;;;5050624;28;20025;-76
2023/12/30 08:33:22;;;;;;;8.27;1.30;;;;;;;;;;5049235;28;20021;-76
2023/12/30 08:35:48;;;;;;;9.60;1.83;;;;;;;;;;5050120;28;20044;-76
2023/12/30 08:38:16;;;;;;;14.35;2.10;;;;;;;;;;5050593;28;20021;-76
2023/12/30 08:40:42;;;;;;;11.27;1.65;;;;;;;;;;5050954;28;20059;-76
2023/12/30 08:43:08;;;;;;;17.52;1.92;;;;;;;;;;5050232;28;20024;-76
2023/12/30 08:45:34;;;;;;;14.82;1.73;;;;;;;;;;5050351;28;20023;-76
2023/12/30 08:48:00;;;;;;;12.90;1.75;;;;;;;;;;5058540;28;20104;-76
2023/12/30 08:50:27;;;;;;;10.73;1.52;;;;;;;;;;5056061;28;20021;-76
2023/12/30 08:52:54;;;;;;;14.40;1.60;;;;;;;;;;5051997;28;20404;-76
2023/12/30 08:55:20;;;;;;;19.05;1.98;;;;;;;;;;5060732;28;20019;-76
2023/12/30 08:57:46;;;;;;;10.23;1.70;;;;;;;;;;5053199;28;20028;-76
2023/12/30 09:00:12;;;;;;;8.52;1.60;;;;;;;;;;5051162;28;20066;-76
2023/12/30 09:02:46;;;;;;;10.95;1.92;;;;;;;;;;5050483;28;20009;-76
2023/12/30 09:05:12;;;;;;;9.18;1.48;;;;;;;;;;5050177;28;20457;-76
2023/12/30 09:07:38;;;;;;;13.27;1.88;;;;;;;;;;5050455;28;20096;-76
2023/12/30 09:10:04;;;;;;;8.85;1.92;;;;;;;;;;5049118;28;20535;-76
2023/12/30 09:12:30;;;;;;;9.80;1.77;;;;;;;;;;5048966;28;20063;-76
2023/12/30 09:14:56;;;;;;;12.07;1.73;;;;;;;;;;5047411;28;20067;-76
2023/12/30 09:17:22;;;;;;;18.63;2.05;;;;;;;;;;5049300;28;20033;-76
2023/12/30 09:19:48;;;;;;;11.40;2.40;;;;;;;;;;5061445;28;20515;-76
2023/12/30 09:22:14;;;;;;;12.43;2.28;;;;;;;;;;5048788;28;20020;-76
2023/12/30 09:24:41;;;;;;;8.75;2.03;;;;;;;;;;5068248;28;20017;-76
2023/12/30 09:27:08;;;;;;;13.77;2.22;;;;;;;;;;5070626;28;20055;-76
2023/12/30 09:29:34;;;;;;;10.10;2.72;;;;;;;;;;5053852;28;20039;-76
2023/12/30 09:32:00;;;;;;;5.88;1.88;;;;;;;;;;5048303;28;20079;-76
2023/12/30 09:34:26;;;;;;;10.02;2.10;;;;;;;;;;5063162;28;20418;-76
2023/12/30 09:36:52;;;;;;;8.77;1.58;;;;;;;;;;5068029;28;20032;-76
2023/12/30 09:39:18;;;;;;;18.75;2.35;;;;;;;;;;5055719;28;20017;-76
2023/12/30 09:41:44;;;;;;;11.95;2.05;;;;;;;;;;5049413;28;20036;-76
2023/12/30 09:44:11;;;;;;;11.38;1.95;;;;;;;;;;5060322;28;20259;-76
2023/12/30 09:46:37;;;;;;;9.52;2.13;;;;;;;;;;5069356;28;20013;-76
2023/12/30 09:49:04;;;;;;;8.20;1.15;;;;;;;;;;5057960;28;20492;-76
2023/12/30 09:51:31;;;;;;;7.22;1.77;;;;;;;;;;5047625;28;20103;-76
2023/12/30 09:53:58;;;;;;;13.30;1.73;;;;;;;;;;5049137;28;20017;-76
2023/12/30 09:56:24;;;;;;;10.88;1.55;;;;;;;;;;5049118;28;20248;-76
2023/12/30 09:58:50;;;;;;;12.30;2.35;;;;;;;;;;5056430;28;20012;-76
2023/12/30 10:01:17;;;;;;;6.78;1.70;;;;;;;;;;5068015;28;20365;-76
2023/12/30 10:03:43;;;;;;;10.82;1.90;;;;;;;;;;5060276;28;20017;-76
2023/12/30 10:06:12;;;;;;;12.63;1.60;;;;;;;;;;5049034;28;20009;-76
2023/12/30 10:08:38;;;;;;;12.77;2.40;;;;;;;;;;5049026;28;20021;-76
2023/12/30 10:11:11;;;;;;;12.85;2.50;;;;;;;;;;5047329;28;20016;-76
2023/12/30 10:13:37;;;;;;;12.88;1.73;;;;;;;;;;5053482;28;20039;-76
2023/12/30 10:16:05;;;;;;;8.20;1.83;;;;;;;;;;5068800;28;20074;-76
2023/12/30 10:18:38;;;;;;;15.00;1.80;;;;;;;;;;5066371;28;20036;-76
2023/12/30 10:21:04;;;;;;;11.25;1.67;;;;;;;;;;5047495;28;20017;-76
2023/12/30 10:23:31;;;;;;;12.90;2.30;;;;;;;;;;5050623;28;20013;-76
2023/12/30 10:25:57;;;;;;;11.10;1.70;;;;;;;;;;5068483;28;20009;-76
2023/12/30 10:28:23;;;;;;;7.60;1.30;;;;;;;;;;5068039;28;20487;-76
2023/12/30 10:31:00;;;;;;;6.55;1.17;;;;;;;;;;5047824;28;20095;-76
2023/12/30 10:33:26;;;;;;;11.23;1.67;;;;;;;;;;5047881;28;20017;-76
2023/12/30 10:35:52;;;;;;;10.13;1.55;;;;;;;;;;5067100;28;20041;-76
2023/12/30 10:38:19;;;;;;;14.55;2.67;;;;;;;;;;5067249;28;20106;-76
2023/12/30 10:40:45;;;;;;;10.48;2.47;;;;;;;;;;5048847;28;20025;-76
2023/12/30 10:43:12;;;;;;;13.43;1.98;;;;;;;;;;5047147;28;20017;-76
2023/12/30 10:45:38;;;;;;;9.35;1.88;;;;;;;;;;5065133;28;20023;-76
2023/12/30 10:48:06;;;;;;;10.73;1.58;;;;;;;;;;5067255;28;20048;-76
2023/12/30 10:50:32;;;;;;;6.30;1.30;;;;;;;;;;5050995;28;20021;-76
2023/12/30 10:53:02;;;;;;;11.40;2.75;;;;;;;;;;5047766;28;20025;-76
2023/12/30 10:55:28;;;;;;;;;;;;;;;;;;5065160;28;20131;-77
2023/12/30 10:57:59;;;;;;;10.48;1.92;;;;;;;;;;5068957;28;19971;-76
2023/12/30 11:00:25;;;;;;;11.25;2.40;;;;;;;;;;5052634;28;20025;-76
2023/12/30 11:02:52;;;;;;;9.43;2.10;;;;;;;;;;5047842;28;20091;-80
2023/12/30 11:05:28;;;;;;;12.98;2.10;;;;;;;;;;5047582;28;20432;-79
2023/12/30 11:07:54;;;;;;;9.63;1.75;;;;;;;;;;5047683;28;20017;-79
2023/12/30 11:10:21;;;;;;;7.65;1.50;;;;;;;;;;5060888;28;20035;-79
2023/12/30 11:12:47;;;;;;;8.45;1.90;;;;;;;;;;5068890;28;20020;-79
2023/12/30 11:15:29;;;;;;;8.88;1.73;;;;;;;;;;5055514;28;20504;-79
2023/12/30 11:17:58;;;;;;;9.07;1.38;;;;;;;;;;5046357;28;20361;-79
2023/12/30 11:20:25;;;;;;;10.00;1.95;;;;;;;;;;5059448;28;20027;-79
2023/12/30 11:22:55;;;;;;;7.43;1.23;;;;;;;;;;5071658;28;20495;-79
2023/12/30 11:25:21;;;;;;;6.15;1.20;;;;;;;;;;5056962;28;20017;-78
2023/12/30 11:27:53;;;;;;;6.80;1.33;;;;;;;;;;5050120;28;20116;-78
2023/12/30 11:30:25;;;;;;;8.55;1.40;;;;;;;;;;5057900;28;20056;-78
2023/12/30 11:32:53;;;;;;;8.23;2.05;;;;;;;;;;5059429;28;20014;-78
2023/12/30 11:35:19;;;;;;;6.82;1.05;;;;;;;;;;5054441;28;20033;-79
2023/12/30 11:37:49;;;;;;;7.88;1.67;;;;;;;;;;5050071;28;20489;-79
2023/12/30 11:40:18;;;;;;;9.95;1.40;;;;;;;;;;5051862;28;20573;-78
2023/12/30 11:42:45;;;;;;;6.00;1.73;;;;;;;;;;5057367;28;20017;-79
2023/12/30 11:45:11;;;;;;;3.88;1.00;;;;;;;;;;5057756;28;20256;-78
2023/12/30 11:47:38;;;;;;;3.35;1.13;;;;;;;;;;5057469;28;20016;-77
2023/12/30 11:50:05;;;;;;;7.35;1.40;;;;;;;;;;5057507;28;20031;-78
2023/12/30 11:52:33;;;;;;;8.20;1.40;;;;;;;;;;5070484;28;20480;-81
2023/12/30 11:54:59;;;;;;;11.15;1.65;;;;;;;;;;5072262;28;20025;-79
2023/12/30 11:57:26;;;;;;;11.27;1.88;;;;;;;;;;5070767;28;20028;-76
2023/12/30 11:59:52;;;;;;;7.45;2.38;;;;;;;;;;5066417;28;20028;-77
2023/12/30 12:02:21;;;;;;;7.03;1.55;;;;;;;;;;5050749;28;20079;-77
2023/12/30 12:04:47;;;;;;;12.25;2.33;;;;;;;;;;5052876;28;20023;-78
2023/12/30 12:07:14;;;;;;;7.10;1.80;;;;;;;;;;5072025;28;20121;-77
2023/12/30 12:09:42;;;;;;;5.60;1.05;;;;;;;;;;5069061;28;20082;-77
2023/12/30 12:12:08;;;;;;;9.02;1.27;;;;;;;;;;5050612;28;20474;-76
2023/12/30 12:14:34;;;;;;;10.13;1.33;;;;;;;;;;5052063;28;20021;-75
2023/12/30 12:17:06;;;;;;;7.60;1.45;;;;;;;;;;5059733;28;20166;-76
2023/12/30 12:19:33;;;;;;;8.82;1.10;;;;;;;;;;5056809;28;20013;-75
2023/12/30 12:22:00;;;;;;;5.65;1.50;;;;;;;;;;5067440;28;20028;-75
2023/12/30 12:24:26;;;;;;;9.82;1.85;;;;;;;;;;5071505;28;20017;-76
2023/12/30 12:26:53;;;;;;;5.32;1.30;;;;;;;;;;5069417;28;20107;-75
2023/12/30 12:29:19;;;;;;;10.43;2.10;;;;;;;;;;5070836;28;20071;-76
2023/12/30 12:31:46;;;;;;;7.20;1.25;;;;;;;;;;5051844;28;20025;-75
2023/12/30 12:34:22;;;;;;;10.60;1.52;;;;;;;;;;5048382;28;20032;-76
2023/12/30 12:36:48;;;;;;;7.40;1.42;;;;;;;;;;5066867;28;20089;-76
2023/12/30 12:39:14;;;;;;;9.70;1.70;;;;;;;;;;5069374;28;20221;-76
2023/12/30 12:41:40;;;;;;;7.55;1.77;;;;;;;;;;5052758;28;20016;-75
2023/12/30 12:44:06;;;;;;;6.43;1.10;;;;;;;;;;5050836;28;20013;-76
2023/12/30 12:46:32;;;;;;;5.05;1.10;;;;;;;;;;5051277;28;20013;-76
2023/12/30 12:48:59;;;;;;;7.70;1.40;;;;;;;;;;5050286;28;20014;-76
2023/12/30 12:51:26;;;;;;;7.25;1.77;;;;;;;;;;5060120;28;20009;-76
2023/12/30 12:53:52;;;;;;;4.65;1.23;;;;;;;;;;5057711;28;20468;-76
2023/12/30 12:56:18;;;;;;;8.27;1.10;;;;;;;;;;5062692;28;20487;-77
2023/12/30 12:58:44;;;;;;;7.82;1.55;;;;;;;;;;5060624;28;20021;-76
2023/12/30 13:01:11;;;;;;;6.68;1.90;;;;;;;;;;5062459;28;20019;-76
2023/12/30 13:03:37;;;;;;;8.00;1.00;;;;;;;;;;5063139;28;19997;-76
2023/12/30 13:06:10;;;;;;;12.43;2.00;;;;;;;;;;5063253;28;20012;-76
2023/12/30 13:08:37;;;;;;;13.35;1.70;;;;;;;;;;5056069;28;20020;-77
2023/12/30 13:11:03;;;;;;;6.35;1.92;;;;;;;;;;5053882;28;20028;-78
2023/12/30 13:13:29;;;;;;;6.10;1.67;;;;;;;;;;5048759;28;20048;-78
2023/12/30 13:15:58;;;;;;;7.63;1.73;;;;;;;;;;5051943;28;20027;-77
2023/12/30 13:18:25;;;;;;;9.88;2.28;;;;;;;;;;5047239;28;20029;-77
2023/12/30 13:20:51;;;;;;;11.98;4.38;;;;;;;;;;5045635;28;20040;-77
2023/12/30 13:23:17;;;;;;;17.15;4.53;;;;;;;;;;5062081;28;20020;-77
2023/12/30 13:25:43;;;;;;;7.93;2.38;;;;;;;;;;5064481;28;20016;-77
2023/12/30 13:28:10;;;;;;;8.27;2.22;;;;;;;;;;5053331;28;20377;-77
2023/12/30 13:30:36;;;;;;;8.85;2.60;;;;;;;;;;5050519;28;20335;-77
2023/12/30 13:33:05;;;;;;;9.13;1.85;;;;;;;;;;5052917;28;20025;-77
2023/12/30 13:35:36;;;;;;;11.55;1.70;;;;;;;;;;5054882;28;20066;-77
2023/12/30 13:38:11;;;;;;;6.13;1.55;;;;;;;;;;5050029;28;20069;-77
2023/12/30 13:40:38;;;;;;;11.77;2.08;;;;;;;;;;5051495;28;20071;-77
2023/12/30 13:43:09;;;;;;;7.45;1.52;;;;;;;;;;5054759;28;20415;-77
2023/12/30 13:45:36;;;;;;;7.53;1.42;;;;;;;;;;5051518;28;20017;-77
2023/12/30 13:50:48;;;;;;;7.43;1.60;;;;;;;;;;5070257;28;20473;-78
2023/12/30 13:53:14;;;;;;;13.40;2.72;;;;;;;;;;5058101;28;20024;-78
2023/12/30 13:55:40;;;;;;;13.13;2.03;;;;;;;;;;5049654;28;20075;-78
2023/12/30 13:58:06;;;;;;;11.82;2.30;;;;;;;;;;5067421;28;20062;-78
2023/12/30 14:00:34;;;;;;;7.03;1.67;;;;;;;;;;5068066;28;20091;-77
2023/12/30 14:03:03;;;;;;;9.75;2.05;;;;;;;;;;5048824;28;20496;-78
2023/12/30 14:05:34;;;;;;;10.38;1.95;;;;;;;;;;5047667;28;20017;-78
2023/12/30 14:08:16;;;;;;;8.30;2.08;;;;;;;;;;5068791;28;20044;-77
2023/12/30 14:10:50;;;;;;;8.52;1.65;;;;;;;;;;5065394;28;20020;-77
2023/12/30 14:13:16;;;;;;;10.20;2.20;;;;;;;;;;5047477;28;20074;-78
2023/12/30 14:15:46;;;;;;;10.73;2.70;;;;;;;;;;5050028;28;20054;-77
2023/12/30 14:18:12;;;;;;;7.90;2.50;;;;;;;;;;5068670;28;20107;-77
2023/12/30 14:20:39;;;;;;;14.80;1.92;;;;;;;;;;5067962;28;20415;-77
2023/12/30 14:23:05;;;;;;;11.93;2.20;;;;;;;;;;5047265;28;20017;-77
2023/12/30 14:25:31;;;;;;;7.68;2.13;;;;;;;;;;5047312;28;20013;-77
2023/12/30 14:27:58;;;;;;;10.23;2.35;;;;;;;;;;5066677;28;20039;-77
2023/12/30 14:30:24;;;;;;;12.45;2.00;;;;;;;;;;5067256;28;20602;-78
2023/12/30 14:32:50;;;;;;;10.85;2.20;;;;;;;;;;5049269;28;20016;-77
2023/12/30 14:35:16;;;;;;;17.38;2.28;;;;;;;;;;5047027;28;20078;-78